createdAt,value
2019-03-31T00:00:02.663Z,3.70
2019-03-31T00:02:30.933Z,3.70
2019-03-31T00:04:59.180Z,3.70
2019-03-31T00:07:27.418Z,3.70
2019-03-31T00:09:55.634Z,3.70
2019-03-31T00:12:23.862Z,3.70
2019-03-31T00:14:52.038Z,3.70
2019-03-31T00:17:20.287Z,3.80
2019-03-31T00:19:48.509Z,3.80
2019-03-31T00:22:16.763Z,3.70
2019-03-31T00:24:44.992Z,3.70
2019-03-31T00:27:13.225Z,3.80
2019-03-31T00:29:41.461Z,3.80
2019-03-31T00:32:09.714Z,3.70
2019-03-31T00:34:38.001Z,3.60
2019-03-31T00:37:07.661Z,3.70
2019-03-31T00:39:34.444Z,3.70
2019-03-31T00:42:02.683Z,3.60
2019-03-31T00:44:30.890Z,3.70
2019-03-31T00:47:02.014Z,3.70
2019-03-31T00:49:27.314Z,3.60
2019-03-31T00:51:55.481Z,3.50
2019-03-31T00:54:23.718Z,3.50
2019-03-31T00:56:51.940Z,3.50
2019-03-31T00:59:20.176Z,3.50
2019-03-31T01:01:49.280Z,3.40
2019-03-31T01:04:17.504Z,3.30
2019-03-31T01:06:45.749Z,3.30
2019-03-31T01:09:20.412Z,3.20
2019-03-31T01:11:48.615Z,3.10
2019-03-31T01:14:16.840Z,3.10
2019-03-31T01:16:45.101Z,3.10
2019-03-31T01:19:13.335Z,3.10
2019-03-31T01:21:41.566Z,3.00
2019-03-31T01:24:09.808Z,3.00
2019-03-31T01:26:37.999Z,2.90
2019-03-31T01:29:06.277Z,2.90
2019-03-31T01:31:34.479Z,2.80
2019-03-31T01:34:02.697Z,2.80
2019-03-31T01:36:30.871Z,2.70
2019-03-31T01:38:59.201Z,2.60
2019-03-31T01:41:27.449Z,2.60
2019-03-31T01:43:55.653Z,2.50
2019-03-31T01:46:23.884Z,2.40
2019-03-31T01:48:52.057Z,2.40
2019-03-31T01:51:20.306Z,2.40
2019-03-31T01:53:48.569Z,2.40
2019-03-31T01:56:16.810Z,2.40
2019-03-31T01:58:45.064Z,2.50
2019-03-31T02:01:13.345Z,2.50
2019-03-31T02:03:41.566Z,2.50
2019-03-31T02:06:09.781Z,2.50
2019-03-31T02:08:38.065Z,2.50
2019-03-31T02:11:06.315Z,2.60
2019-03-31T02:13:34.525Z,2.60
2019-03-31T02:16:02.743Z,2.60
2019-03-31T02:18:30.952Z,2.70
2019-03-31T02:20:59.203Z,2.70
2019-03-31T02:23:27.454Z,2.60
2019-03-31T02:25:55.653Z,2.60
2019-03-31T02:28:23.899Z,2.70
2019-03-31T02:30:52.171Z,2.70
2019-03-31T02:33:20.372Z,2.70
2019-03-31T02:35:48.623Z,2.60
2019-03-31T02:38:16.880Z,2.50
2019-03-31T02:40:45.095Z,2.40
2019-03-31T02:43:13.292Z,2.40
2019-03-31T02:45:41.561Z,2.30
2019-03-31T02:48:09.765Z,2.20
2019-03-31T02:50:42.380Z,2.20
2019-03-31T02:53:10.613Z,2.20
2019-03-31T02:55:38.802Z,2.10
2019-03-31T02:58:07.025Z,2.10
2019-03-31T03:00:35.277Z,2.10
2019-03-31T03:03:03.487Z,2.00
2019-03-31T03:05:31.847Z,2.00
2019-03-31T03:07:59.988Z,1.90
2019-03-31T03:10:28.161Z,1.90
2019-03-31T03:12:56.419Z,1.80
2019-03-31T03:15:26.337Z,1.80
2019-03-31T03:17:54.605Z,1.70
2019-03-31T03:20:22.848Z,1.70
2019-03-31T03:22:51.092Z,1.80
2019-03-31T03:25:19.322Z,1.80
2019-03-31T03:27:48.340Z,1.80
2019-03-31T03:30:16.554Z,1.80
2019-03-31T03:33:12.341Z,1.80
2019-03-31T03:35:13.004Z,1.80
2019-03-31T03:37:41.231Z,1.70
2019-03-31T03:40:09.484Z,1.70
2019-03-31T03:42:37.687Z,1.70
2019-03-31T03:45:05.938Z,1.60
2019-03-31T03:47:34.182Z,1.60
2019-03-31T03:50:02.441Z,1.60
2019-03-31T03:52:30.629Z,1.50
2019-03-31T03:54:58.824Z,1.50
2019-03-31T03:57:27.041Z,1.50
2019-03-31T03:59:55.263Z,1.50
2019-03-31T04:02:23.505Z,1.50
2019-03-31T04:04:51.757Z,1.50
2019-03-31T04:07:19.988Z,1.50
2019-03-31T04:09:48.224Z,1.40
2019-03-31T04:12:16.496Z,1.50
2019-03-31T04:14:44.698Z,1.40
2019-03-31T04:17:12.909Z,1.40
2019-03-31T04:19:41.121Z,1.40
2019-03-31T04:22:09.339Z,1.40
2019-03-31T04:24:37.574Z,1.50
2019-03-31T04:27:05.859Z,1.60
2019-03-31T04:29:34.023Z,1.50
2019-03-31T04:32:02.275Z,1.50
2019-03-31T04:34:30.570Z,1.50
2019-03-31T04:36:58.784Z,1.50
2019-03-31T04:39:26.992Z,1.50
2019-03-31T04:41:55.205Z,1.50
2019-03-31T04:44:23.446Z,1.50
2019-03-31T04:46:51.662Z,1.50
2019-03-31T04:49:19.930Z,1.40
2019-03-31T04:51:48.102Z,1.40
2019-03-31T04:54:16.325Z,1.40
2019-03-31T04:56:44.578Z,1.30
2019-03-31T04:59:12.780Z,1.30
2019-03-31T05:01:40.999Z,1.20
2019-03-31T05:04:09.238Z,1.20
2019-03-31T05:06:37.476Z,1.20
2019-03-31T05:09:05.659Z,1.30
2019-03-31T05:11:33.895Z,1.20
2019-03-31T05:14:02.135Z,1.20
2019-03-31T05:16:30.368Z,1.20
2019-03-31T05:18:58.597Z,1.30
2019-03-31T05:21:26.777Z,1.30
2019-03-31T05:23:54.942Z,1.30
2019-03-31T05:26:23.207Z,1.30
2019-03-31T05:28:51.408Z,1.20
2019-03-31T05:31:19.620Z,1.20
2019-03-31T05:33:47.875Z,1.20
2019-03-31T05:36:16.109Z,1.20
2019-03-31T05:38:44.305Z,1.30
2019-03-31T05:41:12.561Z,1.30
2019-03-31T05:43:40.786Z,1.30
2019-03-31T05:46:09.008Z,1.30
2019-03-31T05:48:37.273Z,1.30
2019-03-31T05:51:05.468Z,1.40
2019-03-31T05:53:33.706Z,1.50
2019-03-31T05:56:01.959Z,1.60
2019-03-31T05:58:30.220Z,1.70
2019-03-31T06:00:58.419Z,1.80
2019-03-31T06:03:26.631Z,1.90
2019-03-31T06:05:54.851Z,1.90
2019-03-31T06:08:23.041Z,2.00
2019-03-31T06:10:51.380Z,2.10
2019-03-31T08:37:41.719Z,12.90
2019-03-31T08:40:09.964Z,13.20
2019-03-31T08:42:38.165Z,13.50
2019-03-31T08:45:06.469Z,13.70
2019-03-31T08:47:34.672Z,13.90
2019-03-31T08:50:02.923Z,14.20
2019-03-31T08:52:31.148Z,14.60
2019-03-31T08:54:59.391Z,14.80
2019-03-31T08:57:27.619Z,15.10
2019-03-31T08:59:55.867Z,15.40
2019-03-31T09:02:24.080Z,15.40
2019-03-31T09:04:52.326Z,15.40
2019-03-31T09:07:20.561Z,15.50
2019-03-31T09:09:48.816Z,15.60
2019-03-31T09:12:19.026Z,15.80
2019-03-31T09:14:47.275Z,16.00
2019-03-31T09:17:15.533Z,16.10
2019-03-31T09:19:43.787Z,16.10
2019-03-31T09:22:12.042Z,16.20
2019-03-31T09:24:40.251Z,16.30
2019-03-31T09:27:08.497Z,16.50
2019-03-31T09:29:36.770Z,16.70
2019-03-31T09:32:04.962Z,16.80
2019-03-31T09:34:33.166Z,16.90
2019-03-31T09:37:01.424Z,17.00
2019-03-31T09:39:29.673Z,17.10
2019-03-31T09:41:57.928Z,17.00
2019-03-31T09:44:26.165Z,16.80
2019-03-31T09:46:54.404Z,16.90
2019-03-31T09:49:22.615Z,17.10
2019-03-31T09:51:50.859Z,17.30
2019-03-31T09:54:19.092Z,17.50
2019-03-31T09:56:47.337Z,17.70
2019-03-31T09:59:15.580Z,17.90
2019-03-31T10:01:43.809Z,18.10
2019-03-31T10:04:12.048Z,18.20
2019-03-31T10:06:40.263Z,18.30
2019-03-31T10:09:08.467Z,18.50
2019-03-31T10:11:36.658Z,18.60
2019-03-31T10:14:04.886Z,18.80
2019-03-31T10:16:33.094Z,18.80
2019-03-31T10:19:01.308Z,18.80
2019-03-31T10:21:29.535Z,18.90
2019-03-31T10:23:57.716Z,19.10
2019-03-31T10:26:31.901Z,19.30
2019-03-31T10:28:54.233Z,19.40
2019-03-31T10:31:22.423Z,19.40
2019-03-31T10:33:50.656Z,19.30
2019-03-31T10:36:18.895Z,19.30
2019-03-31T10:38:47.073Z,19.10
2019-03-31T10:41:15.304Z,19.20
2019-03-31T10:43:43.572Z,19.40
2019-03-31T10:46:11.773Z,19.40
2019-03-31T10:48:39.996Z,19.60
2019-03-31T10:51:08.212Z,19.70
2019-03-31T10:53:36.429Z,20.10
2019-03-31T10:56:04.644Z,20.30
2019-03-31T10:58:32.894Z,20.80
2019-03-31T11:01:01.093Z,20.90
2019-03-31T11:03:32.865Z,21.20
2019-03-31T11:05:57.574Z,21.40
2019-03-31T11:08:25.823Z,21.80
2019-03-31T11:10:54.010Z,22.30
2019-03-31T11:13:22.293Z,22.50
2019-03-31T11:15:50.486Z,22.40
2019-03-31T11:18:18.658Z,22.30
2019-03-31T11:20:46.915Z,22.30
2019-03-31T11:23:19.034Z,22.80
2019-03-31T11:25:47.226Z,23.70
2019-03-31T11:28:15.443Z,22.90
2019-03-31T11:30:43.650Z,22.40
2019-03-31T11:33:11.866Z,22.10
2019-03-31T11:35:40.099Z,24.40
2019-03-31T11:38:08.320Z,26.80
2019-03-31T11:40:36.610Z,28.20
2019-03-31T11:43:04.846Z,28.90
2019-03-31T11:45:33.051Z,29.50
2019-03-31T11:48:01.263Z,30.60
2019-03-31T11:50:29.515Z,31.10
2019-03-31T11:52:57.719Z,31.70
2019-03-31T11:55:25.967Z,31.70
2019-03-31T11:57:54.152Z,31.20
2019-03-31T12:00:22.363Z,29.00
2019-03-31T12:02:50.575Z,29.30
2019-03-31T12:05:18.782Z,30.70
2019-03-31T12:07:48.363Z,31.00
2019-03-31T12:10:19.636Z,32.30
2019-03-31T12:12:44.854Z,33.10
2019-03-31T12:15:13.075Z,34.10
2019-03-31T12:17:41.317Z,34.30
2019-03-31T12:20:09.499Z,35.20
2019-03-31T12:22:37.715Z,34.50
2019-03-31T12:25:05.981Z,34.60
2019-03-31T12:27:34.152Z,34.10
2019-03-31T12:30:02.343Z,33.80
2019-03-31T12:32:30.567Z,34.00
2019-03-31T12:34:58.815Z,34.00
2019-03-31T12:37:41.247Z,33.80
2019-03-31T12:39:55.266Z,33.50
2019-03-31T12:42:23.483Z,33.60
2019-03-31T12:44:51.665Z,34.80
2019-03-31T12:47:19.943Z,34.90
2019-03-31T12:49:48.192Z,34.80
2019-03-31T12:52:16.399Z,34.90
2019-03-31T12:54:44.641Z,34.50
2019-03-31T12:57:12.852Z,33.60
2019-03-31T12:59:41.056Z,33.90
2019-03-31T13:02:09.285Z,33.60
2019-03-31T13:04:37.492Z,34.80
2019-03-31T13:07:05.668Z,35.80
2019-03-31T13:09:33.904Z,37.00
2019-03-31T13:12:02.135Z,35.90
2019-03-31T13:14:30.349Z,34.50
2019-03-31T13:17:01.436Z,35.40
2019-03-31T13:19:26.814Z,36.10
2019-03-31T13:21:55.056Z,35.80
2019-03-31T13:24:23.332Z,35.50
2019-03-31T13:26:51.551Z,35.60
2019-03-31T13:29:19.773Z,34.80
2019-03-31T13:31:48.020Z,35.80
2019-03-31T13:34:16.264Z,35.40
2019-03-31T13:36:44.470Z,35.10
2019-03-31T13:39:12.768Z,34.80
2019-03-31T13:41:40.892Z,34.60
2019-03-31T13:44:09.149Z,33.20
2019-03-31T13:46:37.432Z,34.50
2019-03-31T13:49:05.636Z,35.80
2019-03-31T13:51:33.869Z,35.50
2019-03-31T13:54:02.216Z,34.20
2019-03-31T13:56:31.069Z,34.70
2019-03-31T13:58:58.583Z,34.50
2019-03-31T14:01:26.860Z,34.10
2019-03-31T14:03:55.076Z,34.30
2019-03-31T14:06:23.342Z,34.20
2019-03-31T14:08:51.523Z,35.40
2019-03-31T14:11:21.665Z,36.00
2019-03-31T14:13:47.973Z,36.20
2019-03-31T14:16:16.188Z,36.60
2019-03-31T14:18:44.398Z,37.70
2019-03-31T14:21:12.605Z,38.10
2019-03-31T14:23:43.751Z,38.90
2019-03-31T14:26:09.115Z,38.30
2019-03-31T14:28:37.330Z,38.80
2019-03-31T14:31:05.663Z,38.40
2019-03-31T14:33:33.901Z,38.00
2019-03-31T14:36:02.075Z,38.40
2019-03-31T14:38:39.902Z,38.40
2019-03-31T14:40:58.506Z,38.50
2019-03-31T14:43:28.178Z,38.70
2019-03-31T14:45:55.005Z,38.50
2019-03-31T14:48:23.226Z,38.50
2019-03-31T14:50:51.414Z,37.30
2019-03-31T14:53:19.647Z,37.80
2019-03-31T14:55:47.870Z,37.80
2019-03-31T14:58:16.132Z,36.90
2019-03-31T15:00:44.398Z,36.80
2019-03-31T15:03:12.585Z,36.70
2019-03-31T15:05:40.802Z,36.30
2019-03-31T15:08:09.114Z,36.30
2019-03-31T15:10:37.317Z,34.80
2019-03-31T15:13:05.556Z,34.20
2019-03-31T15:15:33.789Z,33.90
2019-03-31T15:18:01.986Z,34.30
2019-03-31T15:20:30.177Z,33.20
2019-03-31T15:22:58.837Z,32.50
2019-03-31T15:25:27.072Z,32.00
2019-03-31T15:27:55.256Z,32.10
2019-03-31T15:30:23.522Z,31.90
2019-03-31T15:32:51.723Z,32.40
2019-03-31T15:35:19.949Z,32.10
2019-03-31T15:37:49.299Z,32.10
2019-03-31T15:40:17.584Z,31.90
2019-03-31T15:42:45.676Z,31.60
2019-03-31T15:45:13.957Z,31.10
2019-03-31T15:47:42.191Z,30.30
2019-03-31T15:50:10.412Z,29.90
2019-03-31T15:52:38.634Z,29.90
2019-03-31T15:55:06.815Z,29.30
2019-03-31T15:57:35.056Z,28.90
2019-03-31T16:00:03.276Z,28.20
2019-03-31T16:02:31.458Z,27.80
2019-03-31T16:04:59.707Z,27.50
2019-03-31T16:07:27.954Z,27.10
2019-03-31T16:09:56.136Z,26.90
2019-03-31T16:12:24.387Z,26.40
2019-03-31T16:14:52.611Z,25.30
2019-03-31T16:17:20.818Z,24.00
2019-03-31T16:19:49.053Z,22.90
2019-03-31T16:22:17.289Z,22.00
2019-03-31T16:24:45.520Z,21.30
2019-03-31T16:27:13.737Z,20.60
2019-03-31T16:29:41.980Z,20.00
2019-03-31T16:32:10.183Z,19.70
2019-03-31T16:34:38.356Z,19.30
2019-03-31T16:37:06.584Z,19.10
2019-03-31T16:39:37.943Z,18.90
2019-03-31T16:42:02.983Z,18.80
2019-03-31T16:44:31.251Z,18.90
2019-03-31T16:46:59.472Z,19.00
2019-03-31T16:49:27.697Z,18.90
2019-03-31T16:51:55.951Z,19.00
2019-03-31T16:54:24.149Z,19.00
2019-03-31T16:56:52.387Z,19.00
2019-03-31T16:59:20.661Z,19.00
2019-03-31T17:01:48.849Z,18.90
2019-03-31T17:04:17.082Z,18.60
2019-03-31T17:06:45.339Z,18.10
2019-03-31T17:09:13.591Z,17.70
2019-03-31T17:11:41.811Z,17.30
2019-03-31T17:14:10.083Z,16.90
2019-03-31T17:16:38.313Z,16.80
2019-03-31T17:19:06.539Z,16.60
2019-03-31T17:21:34.781Z,16.30
2019-03-31T17:24:03.065Z,16.00
2019-03-31T17:26:31.252Z,15.80
2019-03-31T17:28:59.484Z,15.60
2019-03-31T17:31:27.676Z,15.40
2019-03-31T17:33:55.856Z,15.20
2019-03-31T17:36:24.128Z,15.10
2019-03-31T17:38:52.331Z,14.80
2019-03-31T17:41:20.519Z,14.70
2019-03-31T17:43:48.737Z,14.60
2019-03-31T17:46:16.946Z,14.50
2019-03-31T17:48:45.139Z,14.40
2019-03-31T17:51:13.386Z,14.30
2019-03-31T17:53:41.640Z,14.10
2019-03-31T17:56:09.792Z,14.00
2019-03-31T17:58:38.069Z,13.90
2019-03-31T18:01:06.265Z,13.80
2019-03-31T18:03:34.445Z,13.60
2019-03-31T18:06:02.705Z,13.50
2019-03-31T18:08:30.944Z,13.40
2019-03-31T18:10:59.160Z,13.30
2019-03-31T18:13:27.390Z,13.20
2019-03-31T18:15:55.611Z,13.10
2019-03-31T18:18:23.853Z,13.10
2019-03-31T18:20:52.098Z,13.00
2019-03-31T18:23:20.282Z,12.90
2019-03-31T18:25:48.478Z,12.90
2019-03-31T18:28:16.699Z,12.80
2019-03-31T18:30:44.958Z,12.70
2019-03-31T18:33:13.152Z,12.70
2019-03-31T18:35:41.427Z,12.60
2019-03-31T18:38:09.646Z,12.60
2019-03-31T18:40:37.912Z,12.60
2019-03-31T18:43:06.965Z,12.60
2019-03-31T18:45:35.140Z,12.50
2019-03-31T18:48:03.335Z,12.40
2019-03-31T18:50:31.600Z,12.40
2019-03-31T18:52:59.843Z,12.30
2019-03-31T18:55:30.951Z,12.30
2019-03-31T18:58:01.960Z,12.30
2019-03-31T19:00:30.136Z,12.30
2019-03-31T19:02:58.381Z,12.10
2019-03-31T19:05:26.617Z,12.10
2019-03-31T19:08:00.225Z,12.00
2019-03-31T19:10:38.569Z,12.00
2019-03-31T19:13:07.683Z,11.90
2019-03-31T19:15:41.732Z,11.90
2019-03-31T19:18:09.992Z,12.00
2019-03-31T19:20:43.751Z,12.10
2019-03-31T19:23:17.496Z,12.00
2019-03-31T19:25:46.604Z,12.00
2019-03-31T19:28:20.382Z,11.90
2019-03-31T19:30:48.589Z,11.80
2019-03-31T19:33:22.267Z,11.70
2019-03-31T19:35:50.502Z,11.70
2019-03-31T19:38:21.694Z,11.70
2019-03-31T19:41:04.127Z,11.60
2019-03-31T19:43:23.758Z,11.60
2019-03-31T19:45:51.987Z,11.70
2019-03-31T19:48:25.815Z,11.70
2019-03-31T19:50:54.002Z,11.60
2019-03-31T19:53:28.129Z,11.60
2019-03-31T19:56:06.950Z,11.50
2019-03-31T19:58:26.299Z,11.40
2019-03-31T20:00:59.327Z,11.40
2019-03-31T20:03:28.301Z,11.30
2019-03-31T20:06:00.297Z,11.30
2019-03-31T20:08:28.481Z,11.30
2019-03-31T20:10:56.670Z,11.30
2019-03-31T20:13:30.875Z,11.30
2019-03-31T20:16:04.673Z,11.10
2019-03-31T20:18:36.690Z,11.20
2019-03-31T20:21:08.746Z,11.20
2019-03-31T20:23:38.768Z,11.10
2019-03-31T20:26:07.720Z,11.10
2019-03-31T20:28:38.890Z,11.00
2019-03-31T20:31:07.116Z,10.90
2019-03-31T20:33:40.951Z,10.80
2019-03-31T20:36:12.927Z,10.90
2019-03-31T20:38:41.152Z,10.90
2019-03-31T20:41:14.907Z,10.80
2019-03-31T20:43:43.155Z,10.90
2019-03-31T20:46:11.377Z,10.90
2019-03-31T20:48:39.564Z,10.80
2019-03-31T20:51:07.799Z,10.80
2019-03-31T20:53:35.984Z,10.80
2019-03-31T20:56:04.198Z,10.60
2019-03-31T20:58:32.438Z,10.60
2019-03-31T21:01:00.630Z,10.60
2019-03-31T21:03:28.815Z,10.60
2019-03-31T21:05:57.077Z,10.60
2019-03-31T21:08:25.266Z,10.60
2019-03-31T21:10:53.453Z,10.40
2019-03-31T21:13:21.695Z,10.30
2019-03-31T21:15:49.891Z,10.30
2019-03-31T21:18:18.112Z,10.20
2019-03-31T21:20:46.354Z,10.20
2019-03-31T21:23:14.585Z,10.20
2019-03-31T21:25:42.813Z,10.30
2019-03-31T21:28:11.049Z,10.30
2019-03-31T21:30:39.281Z,10.20
2019-03-31T21:33:07.466Z,10.30
2019-03-31T21:35:35.739Z,10.20
2019-03-31T21:38:05.162Z,10.30
2019-03-31T21:40:32.205Z,10.30
2019-03-31T21:43:00.443Z,10.30
2019-03-31T21:45:28.642Z,10.10
2019-03-31T21:47:56.837Z,10.20
2019-03-31T21:50:25.100Z,10.20
2019-03-31T21:52:53.311Z,10.10
2019-03-31T21:55:21.573Z,10.00
2019-03-31T21:57:50.021Z,10.00
2019-03-31T22:00:18.258Z,10.00
2019-03-31T22:02:46.469Z,10.00
2019-03-31T22:05:14.701Z,10.00
2019-03-31T22:07:42.938Z,9.90
2019-03-31T22:10:11.156Z,9.90
2019-03-31T22:12:39.412Z,10.00
2019-03-31T22:15:08.204Z,10.00
2019-03-31T22:17:46.094Z,10.10
2019-03-31T22:20:14.238Z,10.00
2019-03-31T22:22:42.415Z,9.80
2019-03-31T22:25:10.655Z,9.60
2019-03-31T22:27:38.838Z,9.60
2019-03-31T22:30:07.105Z,9.60
2019-03-31T22:32:35.324Z,9.70
2019-03-31T22:35:03.576Z,9.70
2019-03-31T22:37:31.764Z,9.60
2019-03-31T22:40:00.053Z,9.50
2019-03-31T22:42:28.273Z,9.50
2019-03-31T22:44:56.487Z,9.50
2019-03-31T22:47:24.783Z,9.40
2019-03-31T22:49:52.958Z,9.40
2019-03-31T22:52:21.164Z,9.30
2019-03-31T22:54:49.406Z,9.20
2019-03-31T22:57:17.634Z,9.00
2019-03-31T22:59:45.864Z,9.00
2019-03-31T23:02:15.104Z,8.90
2019-03-31T23:04:43.359Z,8.80
2019-03-31T23:07:11.580Z,8.80
2019-03-31T23:09:39.848Z,8.60
2019-03-31T23:12:08.047Z,8.60
2019-03-31T23:14:36.226Z,8.60
2019-03-31T23:17:04.475Z,8.50
2019-03-31T23:19:32.695Z,8.50
2019-03-31T23:22:00.929Z,8.40
2019-03-31T23:24:29.190Z,8.50
2019-03-31T23:26:57.384Z,8.50
2019-03-31T23:29:25.590Z,8.30
2019-03-31T23:31:53.835Z,8.20
2019-03-31T23:34:22.028Z,8.30
2019-03-31T23:36:50.249Z,8.20
2019-03-31T23:39:18.488Z,8.10
2019-03-31T23:41:46.734Z,8.20
2019-03-31T23:44:14.961Z,8.10
2019-03-31T23:46:43.206Z,8.00
2019-03-31T23:49:11.407Z,8.00
2019-03-31T23:51:39.615Z,7.90
2019-03-31T23:54:07.858Z,7.90
2019-03-31T23:56:36.060Z,7.90
2019-03-31T23:59:04.274Z,7.80
